sensor_id;sensor_type;location;lat;lon;timestamp;temperature;humidity
26821;DHT22;37186;51.394;5.454;2022-08-19T00:01:10;22.80;67.20
26821;DHT22;37186;51.394;5.454;2022-08-19T00:04:12;22.80;67.20
26821;DHT22;37186;51.394;5.454;2022-08-19T00:07:13;22.80;67.30
26821;DHT22;37186;51.394;5.454;2022-08-19T00:10:15;22.80;67.20
26821;DHT22;37186;51.394;5.454;2022-08-19T00:13:16;22.80;67.40
26821;DHT22;37186;51.394;5.454;2022-08-19T00:16:17;22.70;67.40
26821;DHT22;37186;51.394;5.454;2022-08-19T00:19:21;22.70;67.30
26821;DHT22;37186;51.394;5.454;2022-08-19T00:22:22;22.60;67.20
26821;DHT22;37186;51.394;5.454;2022-08-19T00:25:22;22.60;67.30
26821;DHT22;37186;51.394;5.454;2022-08-19T00:28:23;22.60;67.30
26821;DHT22;37186;51.394;5.454;2022-08-19T00:31:23;22.60;67.40
26821;DHT22;37186;51.394;5.454;2022-08-19T00:34:26;22.50;67.60
26821;DHT22;37186;51.394;5.454;2022-08-19T00:37:28;22.50;67.40
26821;DHT22;37186;51.394;5.454;2022-08-19T00:40:28;22.50;67.40
26821;DHT22;37186;51.394;5.454;2022-08-19T00:43:31;22.50;67.60
26821;DHT22;37186;51.394;5.454;2022-08-19T00:46:33;22.40;67.50
26821;DHT22;37186;51.394;5.454;2022-08-19T00:49:39;22.40;67.40
26821;DHT22;37186;51.394;5.454;2022-08-19T00:52:44;22.40;67.60
26821;DHT22;37186;51.394;5.454;2022-08-19T00:55:48;22.40;67.60
26821;DHT22;37186;51.394;5.454;2022-08-19T00:58:49;22.30;67.60
26821;DHT22;37186;51.394;5.454;2022-08-19T01:01:50;22.30;67.70
26821;DHT22;37186;51.394;5.454;2022-08-19T01:04:51;22.30;67.50
26821;DHT22;37186;51.394;5.454;2022-08-19T01:07:51;22.20;67.60
26821;DHT22;37186;51.394;5.454;2022-08-19T01:10:55;22.20;67.50
26821;DHT22;37186;51.394;5.454;2022-08-19T01:13:56;22.20;67.60
26821;DHT22;37186;51.394;5.454;2022-08-19T01:16:57;22.20;67.60
26821;DHT22;37186;51.394;5.454;2022-08-19T01:20:00;22.20;67.60
26821;DHT22;37186;51.394;5.454;2022-08-19T01:23:02;22.10;67.60
26821;DHT22;37186;51.394;5.454;2022-08-19T01:26:03;22.10;67.70
26821;DHT22;37186;51.394;5.454;2022-08-19T01:29:03;22.10;67.60
26821;DHT22;37186;51.394;5.454;2022-08-19T01:32:04;22.10;67.60
26821;DHT22;37186;51.394;5.454;2022-08-19T01:35:06;22.10;67.70
26821;DHT22;37186;51.394;5.454;2022-08-19T01:38:10;22.10;67.70
26821;DHT22;37186;51.394;5.454;2022-08-19T01:41:11;22.00;67.70
26821;DHT22;37186;51.394;5.454;2022-08-19T01:44:12;22.00;67.70
26821;DHT22;37186;51.394;5.454;2022-08-19T01:47:13;22.00;68.50
26821;DHT22;37186;51.394;5.454;2022-08-19T01:50:14;22.00;67.80
26821;DHT22;37186;51.394;5.454;2022-08-19T01:53:15;21.90;67.70
26821;DHT22;37186;51.394;5.454;2022-08-19T01:56:15;21.90;67.80
26821;DHT22;37186;51.394;5.454;2022-08-19T01:59:19;21.90;67.80
26821;DHT22;37186;51.394;5.454;2022-08-19T02:02:20;21.90;67.90
26821;DHT22;37186;51.394;5.454;2022-08-19T02:05:21;21.90;68.00
26821;DHT22;37186;51.394;5.454;2022-08-19T02:08:22;21.90;67.90
26821;DHT22;37186;51.394;5.454;2022-08-19T02:11:26;21.80;67.90
26821;DHT22;37186;51.394;5.454;2022-08-19T02:14:26;21.90;68.10
26821;DHT22;37186;51.394;5.454;2022-08-19T02:17:28;21.90;68.10
26821;DHT22;37186;51.394;5.454;2022-08-19T02:20:29;21.80;67.90
26821;DHT22;37186;51.394;5.454;2022-08-19T02:23:29;21.80;68.00
26821;DHT22;37186;51.394;5.454;2022-08-19T02:26:32;21.80;68.00
26821;DHT22;37186;51.394;5.454;2022-08-19T02:29:33;21.80;68.10
26821;DHT22;37186;51.394;5.454;2022-08-19T02:32:33;21.70;68.30
26821;DHT22;37186;51.394;5.454;2022-08-19T02:35:34;21.80;68.00
26821;DHT22;37186;51.394;5.454;2022-08-19T02:38:35;21.70;68.00
26821;DHT22;37186;51.394;5.454;2022-08-19T02:41:35;21.70;68.10
26821;DHT22;37186;51.394;5.454;2022-08-19T02:44:36;21.70;68.00
26821;DHT22;37186;51.394;5.454;2022-08-19T02:47:37;21.60;68.10
26821;DHT22;37186;51.394;5.454;2022-08-19T02:50:39;21.60;68.10
26821;DHT22;37186;51.394;5.454;2022-08-19T02:53:40;21.60;68.10
26821;DHT22;37186;51.394;5.454;2022-08-19T02:56:42;21.60;68.00
26821;DHT22;37186;51.394;5.454;2022-08-19T02:59:43;21.60;68.10
26821;DHT22;37186;51.394;5.454;2022-08-19T03:02:43;21.50;68.10
26821;DHT22;37186;51.394;5.454;2022-08-19T03:05:44;21.50;67.90
26821;DHT22;37186;51.394;5.454;2022-08-19T03:08:46;21.50;68.30
26821;DHT22;37186;51.394;5.454;2022-08-19T03:11:47;21.50;68.10
26821;DHT22;37186;51.394;5.454;2022-08-19T03:14:48;21.40;68.20
26821;DHT22;37186;51.394;5.454;2022-08-19T03:17:48;21.40;68.10
26821;DHT22;37186;51.394;5.454;2022-08-19T03:20:50;21.40;68.20
26821;DHT22;37186;51.394;5.454;2022-08-19T03:24:02;21.40;68.20
26821;DHT22;37186;51.394;5.454;2022-08-19T03:27:03;21.40;68.30
26821;DHT22;37186;51.394;5.454;2022-08-19T03:30:05;21.30;68.20
26821;DHT22;37186;51.394;5.454;2022-08-19T03:33:08;21.30;68.20
26821;DHT22;37186;51.394;5.454;2022-08-19T03:39:11;21.30;68.40
26821;DHT22;37186;51.394;5.454;2022-08-19T03:42:11;21.30;68.30
26821;DHT22;37186;51.394;5.454;2022-08-19T03:45:12;21.30;68.30
26821;DHT22;37186;51.394;5.454;2022-08-19T03:48:13;21.30;68.30
26821;DHT22;37186;51.394;5.454;2022-08-19T03:51:22;21.20;68.30
26821;DHT22;37186;51.394;5.454;2022-08-19T03:54:24;21.20;68.50
26821;DHT22;37186;51.394;5.454;2022-08-19T03:57:25;21.20;68.40
26821;DHT22;37186;51.394;5.454;2022-08-19T04:00:25;21.20;68.40
26821;DHT22;37186;51.394;5.454;2022-08-19T04:03:26;21.20;68.40
26821;DHT22;37186;51.394;5.454;2022-08-19T04:06:32;21.10;69.20
26821;DHT22;37186;51.394;5.454;2022-08-19T04:09:34;21.10;68.40
26821;DHT22;37186;51.394;5.454;2022-08-19T04:12:36;21.10;68.40
26821;DHT22;37186;51.394;5.454;2022-08-19T04:15:45;21.10;68.50
26821;DHT22;37186;51.394;5.454;2022-08-19T04:18:47;21.10;68.40
26821;DHT22;37186;51.394;5.454;2022-08-19T04:21:51;21.00;68.30
26821;DHT22;37186;51.394;5.454;2022-08-19T04:24:51;21.00;68.40
26821;DHT22;37186;51.394;5.454;2022-08-19T04:27:52;21.00;68.40
26821;DHT22;37186;51.394;5.454;2022-08-19T04:30:54;21.00;68.50
26821;DHT22;37186;51.394;5.454;2022-08-19T04:33:59;21.00;68.50
26821;DHT22;37186;51.394;5.454;2022-08-19T04:37:00;21.00;68.50
26821;DHT22;37186;51.394;5.454;2022-08-19T04:40:01;20.90;68.50
26821;DHT22;37186;51.394;5.454;2022-08-19T04:43:20;20.90;68.50
26821;DHT22;37186;51.394;5.454;2022-08-19T04:46:21;20.90;68.60
26821;DHT22;37186;51.394;5.454;2022-08-19T04:49:22;20.90;68.50
26821;DHT22;37186;51.394;5.454;2022-08-19T04:52:23;20.80;68.60
26821;DHT22;37186;51.394;5.454;2022-08-19T04:55:24;20.80;68.60
26821;DHT22;37186;51.394;5.454;2022-08-19T04:58:26;20.80;68.50
26821;DHT22;37186;51.394;5.454;2022-08-19T05:01:29;20.80;68.60
26821;DHT22;37186;51.394;5.454;2022-08-19T05:04:30;20.70;68.50
26821;DHT22;37186;51.394;5.454;2022-08-19T05:07:32;20.70;68.60
26821;DHT22;37186;51.394;5.454;2022-08-19T05:10:35;20.70;68.50
26821;DHT22;37186;51.394;5.454;2022-08-19T05:13:36;20.70;68.60
26821;DHT22;37186;51.394;5.454;2022-08-19T05:16:37;20.70;68.60
26821;DHT22;37186;51.394;5.454;2022-08-19T05:19:38;20.70;68.70
26821;DHT22;37186;51.394;5.454;2022-08-19T05:22:57;20.60;68.60
26821;DHT22;37186;51.394;5.454;2022-08-19T05:25:58;20.60;68.60
26821;DHT22;37186;51.394;5.454;2022-08-19T05:28:58;20.60;68.60
26821;DHT22;37186;51.394;5.454;2022-08-19T05:31:59;20.60;68.60
26821;DHT22;37186;51.394;5.454;2022-08-19T05:35:00;20.50;68.80
26821;DHT22;37186;51.394;5.454;2022-08-19T05:38:01;20.50;68.70
26821;DHT22;37186;51.394;5.454;2022-08-19T05:41:12;20.50;68.70
26821;DHT22;37186;51.394;5.454;2022-08-19T05:44:13;20.50;68.60
26821;DHT22;37186;51.394;5.454;2022-08-19T05:47:14;20.50;68.60
26821;DHT22;37186;51.394;5.454;2022-08-19T05:50:15;20.50;68.80
26821;DHT22;37186;51.394;5.454;2022-08-19T05:53:18;20.50;68.60
26821;DHT22;37186;51.394;5.454;2022-08-19T05:56:19;20.50;68.70
26821;DHT22;37186;51.394;5.454;2022-08-19T05:59:21;20.50;68.80
26821;DHT22;37186;51.394;5.454;2022-08-19T06:02:21;20.50;68.70
26821;DHT22;37186;51.394;5.454;2022-08-19T06:05:22;20.50;68.70
26821;DHT22;37186;51.394;5.454;2022-08-19T06:08:23;20.50;68.60
26821;DHT22;37186;51.394;5.454;2022-08-19T06:11:42;20.50;68.80
26821;DHT22;37186;51.394;5.454;2022-08-19T06:14:43;20.50;68.70
26821;DHT22;37186;51.394;5.454;2022-08-19T06:17:44;20.50;68.80
26821;DHT22;37186;51.394;5.454;2022-08-19T06:20:44;20.50;69.00
26821;DHT22;37186;51.394;5.454;2022-08-19T06:23:46;20.50;68.80
26821;DHT22;37186;51.394;5.454;2022-08-19T06:26:48;20.50;68.80
26821;DHT22;37186;51.394;5.454;2022-08-19T06:29:49;20.50;68.90
26821;DHT22;37186;51.394;5.454;2022-08-19T06:32:50;20.50;69.10
26821;DHT22;37186;51.394;5.454;2022-08-19T06:35:50;20.60;68.90
26821;DHT22;37186;51.394;5.454;2022-08-19T06:38:51;20.50;69.70
26821;DHT22;37186;51.394;5.454;2022-08-19T06:41:55;20.60;68.90
26821;DHT22;37186;51.394;5.454;2022-08-19T06:44:56;20.60;69.00
26821;DHT22;37186;51.394;5.454;2022-08-19T06:47:58;20.60;69.00
26821;DHT22;37186;51.394;5.454;2022-08-19T06:50:58;20.60;69.00
26821;DHT22;37186;51.394;5.454;2022-08-19T06:53:59;20.60;69.00
26821;DHT22;37186;51.394;5.454;2022-08-19T06:57:00;20.60;69.10
26821;DHT22;37186;51.394;5.454;2022-08-19T07:00:05;20.60;69.40
26821;DHT22;37186;51.394;5.454;2022-08-19T07:03:08;20.60;69.30
26821;DHT22;37186;51.394;5.454;2022-08-19T07:06:14;20.70;70.00
26821;DHT22;37186;51.394;5.454;2022-08-19T07:09:17;20.70;69.20
26821;DHT22;37186;51.394;5.454;2022-08-19T07:12:18;20.70;69.20
26821;DHT22;37186;51.394;5.454;2022-08-19T07:15:18;20.70;69.20
26821;DHT22;37186;51.394;5.454;2022-08-19T07:18:21;20.70;69.40
26821;DHT22;37186;51.394;5.454;2022-08-19T07:21:26;20.80;69.30
26821;DHT22;37186;51.394;5.454;2022-08-19T07:24:28;20.80;69.50
26821;DHT22;37186;51.394;5.454;2022-08-19T07:27:29;20.80;69.50
26821;DHT22;37186;51.394;5.454;2022-08-19T07:30:30;20.90;69.60
26821;DHT22;37186;51.394;5.454;2022-08-19T07:33:31;20.90;69.90
26821;DHT22;37186;51.394;5.454;2022-08-19T07:36:34;20.90;69.60
26821;DHT22;37186;51.394;5.454;2022-08-19T07:39:36;21.00;69.70
26821;DHT22;37186;51.394;5.454;2022-08-19T07:42:37;21.00;69.60
26821;DHT22;37186;51.394;5.454;2022-08-19T07:45:37;21.00;69.70
26821;DHT22;37186;51.394;5.454;2022-08-19T07:48:38;21.00;69.60
26821;DHT22;37186;51.394;5.454;2022-08-19T07:51:40;21.10;69.80
26821;DHT22;37186;51.394;5.454;2022-08-19T07:54:40;21.10;69.80
26821;DHT22;37186;51.394;5.454;2022-08-19T07:57:41;21.10;69.90
26821;DHT22;37186;51.394;5.454;2022-08-19T08:00:42;21.20;70.00
26821;DHT22;37186;51.394;5.454;2022-08-19T08:03:43;21.20;70.10
26821;DHT22;37186;51.394;5.454;2022-08-19T08:07:04;21.30;70.20
26821;DHT22;37186;51.394;5.454;2022-08-19T08:10:24;21.30;70.10
26821;DHT22;37186;51.394;5.454;2022-08-19T08:13:25;21.40;70.50
26821;DHT22;37186;51.394;5.454;2022-08-19T08:16:26;21.40;70.40
26821;DHT22;37186;51.394;5.454;2022-08-19T08:19:30;21.40;70.70
26821;DHT22;37186;51.394;5.454;2022-08-19T08:22:30;21.50;70.50
26821;DHT22;37186;51.394;5.454;2022-08-19T08:25:50;21.60;70.30
26821;DHT22;37186;51.394;5.454;2022-08-19T08:28:52;21.60;70.30
26821;DHT22;37186;51.394;5.454;2022-08-19T08:31:53;21.60;70.30
26821;DHT22;37186;51.394;5.454;2022-08-19T08:34:54;21.60;70.40
26821;DHT22;37186;51.394;5.454;2022-08-19T08:37:54;21.70;70.50
26821;DHT22;37186;51.394;5.454;2022-08-19T08:41:01;21.70;70.40
26821;DHT22;37186;51.394;5.454;2022-08-19T08:44:13;21.70;70.50
26821;DHT22;37186;51.394;5.454;2022-08-19T08:47:17;21.80;70.60
26821;DHT22;37186;51.394;5.454;2022-08-19T08:53:25;21.80;70.60
26821;DHT22;37186;51.394;5.454;2022-08-19T08:56:26;21.90;70.60
26821;DHT22;37186;51.394;5.454;2022-08-19T08:59:31;21.90;70.50
26821;DHT22;37186;51.394;5.454;2022-08-19T09:02:34;21.90;70.50
26821;DHT22;37186;51.394;5.454;2022-08-19T09:05:44;22.00;70.50
26821;DHT22;37186;51.394;5.454;2022-08-19T09:09:17;22.00;71.10
26821;DHT22;37186;51.394;5.454;2022-08-19T09:16:00;22.10;70.90
26821;DHT22;37186;51.394;5.454;2022-08-19T09:19:06;22.10;70.80
26821;DHT22;37186;51.394;5.454;2022-08-19T09:22:06;22.10;71.40
26821;DHT22;37186;51.394;5.454;2022-08-19T09:25:09;22.20;70.90
26821;DHT22;37186;51.394;5.454;2022-08-19T09:28:10;22.20;71.00
26821;DHT22;37186;51.394;5.454;2022-08-19T09:31:17;22.20;70.90
26821;DHT22;37186;51.394;5.454;2022-08-19T09:34:18;22.30;70.90
26821;DHT22;37186;51.394;5.454;2022-08-19T09:37:20;22.30;71.00
26821;DHT22;37186;51.394;5.454;2022-08-19T09:40:22;22.30;70.90
26821;DHT22;37186;51.394;5.454;2022-08-19T09:43:23;22.30;70.90
26821;DHT22;37186;51.394;5.454;2022-08-19T09:46:28;22.40;71.00
26821;DHT22;37186;51.394;5.454;2022-08-19T09:49:29;22.40;71.00
26821;DHT22;37186;51.394;5.454;2022-08-19T09:52:29;22.40;70.90
26821;DHT22;37186;51.394;5.454;2022-08-19T09:55:30;22.50;70.70
26821;DHT22;37186;51.394;5.454;2022-08-19T09:58:31;22.50;70.80
26821;DHT22;37186;51.394;5.454;2022-08-19T10:01:33;22.50;70.80
26821;DHT22;37186;51.394;5.454;2022-08-19T10:04:34;22.50;70.70
26821;DHT22;37186;51.394;5.454;2022-08-19T10:07:53;22.50;70.60
26821;DHT22;37186;51.394;5.454;2022-08-19T10:10:56;22.50;70.60
26821;DHT22;37186;51.394;5.454;2022-08-19T10:13:56;22.50;70.60
26821;DHT22;37186;51.394;5.454;2022-08-19T10:16:57;22.60;70.70
26821;DHT22;37186;51.394;5.454;2022-08-19T10:19:57;22.60;70.70
26821;DHT22;37186;51.394;5.454;2022-08-19T10:22:58;22.60;70.70
26821;DHT22;37186;51.394;5.454;2022-08-19T10:26:00;22.60;70.70
26821;DHT22;37186;51.394;5.454;2022-08-19T10:29:01;22.70;70.90
26821;DHT22;37186;51.394;5.454;2022-08-19T10:32:03;22.70;71.50
26821;DHT22;37186;51.394;5.454;2022-08-19T10:35:06;22.70;70.70
26821;DHT22;37186;51.394;5.454;2022-08-19T10:38:08;22.70;70.70
26821;DHT22;37186;51.394;5.454;2022-08-19T10:41:17;22.80;70.60
26821;DHT22;37186;51.394;5.454;2022-08-19T10:44:18;22.80;70.60
26821;DHT22;37186;51.394;5.454;2022-08-19T10:47:19;22.80;70.70
26821;DHT22;37186;51.394;5.454;2022-08-19T10:50:20;22.70;70.50
26821;DHT22;37186;51.394;5.454;2022-08-19T10:53:39;22.80;70.70
26821;DHT22;37186;51.394;5.454;2022-08-19T10:56:40;22.80;70.50
26821;DHT22;37186;51.394;5.454;2022-08-19T10:59:52;22.80;70.60
26821;DHT22;37186;51.394;5.454;2022-08-19T11:02:53;22.80;70.70
26821;DHT22;37186;51.394;5.454;2022-08-19T11:06:01;22.80;70.70
26821;DHT22;37186;51.394;5.454;2022-08-19T11:09:03;22.90;70.80
26821;DHT22;37186;51.394;5.454;2022-08-19T11:12:03;22.90;70.70
26821;DHT22;37186;51.394;5.454;2022-08-19T11:15:08;22.90;70.80
26821;DHT22;37186;51.394;5.454;2022-08-19T11:18:11;22.90;70.70
26821;DHT22;37186;51.394;5.454;2022-08-19T11:21:21;22.90;70.70
26821;DHT22;37186;51.394;5.454;2022-08-19T11:24:24;22.90;70.70
26821;DHT22;37186;51.394;5.454;2022-08-19T11:27:25;23.00;70.80
26821;DHT22;37186;51.394;5.454;2022-08-19T11:30:25;23.00;70.80
26821;DHT22;37186;51.394;5.454;2022-08-19T11:33:26;23.10;70.90
26821;DHT22;37186;51.394;5.454;2022-08-19T11:36:27;23.10;71.00
26821;DHT22;37186;51.394;5.454;2022-08-19T11:39:30;23.10;71.20
26821;DHT22;37186;51.394;5.454;2022-08-19T11:42:30;23.20;71.10
26821;DHT22;37186;51.394;5.454;2022-08-19T11:45:50;23.20;71.00
26821;DHT22;37186;51.394;5.454;2022-08-19T11:48:50;23.30;71.00
26821;DHT22;37186;51.394;5.454;2022-08-19T11:51:51;23.30;71.00
26821;DHT22;37186;51.394;5.454;2022-08-19T11:54:51;23.40;71.20
26821;DHT22;37186;51.394;5.454;2022-08-19T11:57:52;23.40;71.00
26821;DHT22;37186;51.394;5.454;2022-08-19T12:00:52;23.50;71.10
26821;DHT22;37186;51.394;5.454;2022-08-19T12:03:55;23.50;71.00
26821;DHT22;37186;51.394;5.454;2022-08-19T12:06:55;23.50;71.00
26821;DHT22;37186;51.394;5.454;2022-08-19T12:09:56;23.60;71.10
26821;DHT22;37186;51.394;5.454;2022-08-19T12:12:57;23.60;71.00
26821;DHT22;37186;51.394;5.454;2022-08-19T12:15:57;23.60;70.90
26821;DHT22;37186;51.394;5.454;2022-08-19T12:18:59;23.60;70.90
26821;DHT22;37186;51.394;5.454;2022-08-19T12:22:03;23.70;71.00
26821;DHT22;37186;51.394;5.454;2022-08-19T12:25:06;23.70;70.90
26821;DHT22;37186;51.394;5.454;2022-08-19T12:28:07;23.80;70.90
26821;DHT22;37186;51.394;5.454;2022-08-19T12:31:08;23.80;70.80
26821;DHT22;37186;51.394;5.454;2022-08-19T12:34:09;23.80;70.80
26821;DHT22;37186;51.394;5.454;2022-08-19T12:37:09;23.80;70.70
26821;DHT22;37186;51.394;5.454;2022-08-19T12:40:11;23.90;70.70
26821;DHT22;37186;51.394;5.454;2022-08-19T12:43:13;23.90;70.70
26821;DHT22;37186;51.394;5.454;2022-08-19T12:46:16;23.90;70.70
26821;DHT22;37186;51.394;5.454;2022-08-19T12:49:17;23.90;70.70
26821;DHT22;37186;51.394;5.454;2022-08-19T12:52:18;23.90;70.60
26821;DHT22;37186;51.394;5.454;2022-08-19T12:55:21;24.00;70.70
26821;DHT22;37186;51.394;5.454;2022-08-19T12:58:22;24.00;70.60
26821;DHT22;37186;51.394;5.454;2022-08-19T13:01:22;24.00;70.70
26821;DHT22;37186;51.394;5.454;2022-08-19T13:04:22;24.00;70.60
26821;DHT22;37186;51.394;5.454;2022-08-19T13:07:23;24.10;70.70
26821;DHT22;37186;51.394;5.454;2022-08-19T13:10:28;24.10;70.80
26821;DHT22;37186;51.394;5.454;2022-08-19T13:13:29;24.10;70.80
26821;DHT22;37186;51.394;5.454;2022-08-19T13:16:30;24.20;70.90
26821;DHT22;37186;51.394;5.454;2022-08-19T13:19:31;24.20;71.70
26821;DHT22;37186;51.394;5.454;2022-08-19T13:22:31;24.20;70.80
26821;DHT22;37186;51.394;5.454;2022-08-19T13:25:32;24.20;70.90
26821;DHT22;37186;51.394;5.454;2022-08-19T13:28:34;24.30;70.90
26821;DHT22;37186;51.394;5.454;2022-08-19T13:31:53;24.30;70.90
26821;DHT22;37186;51.394;5.454;2022-08-19T13:35:12;24.30;70.80
26821;DHT22;37186;51.394;5.454;2022-08-19T13:38:15;24.30;70.80
26821;DHT22;37186;51.394;5.454;2022-08-19T13:41:16;24.30;70.70
26821;DHT22;37186;51.394;5.454;2022-08-19T13:44:19;24.30;70.70
26821;DHT22;37186;51.394;5.454;2022-08-19T13:47:20;24.30;70.90
26821;DHT22;37186;51.394;5.454;2022-08-19T13:50:23;24.30;70.80
26821;DHT22;37186;51.394;5.454;2022-08-19T13:53:25;24.40;71.00
26821;DHT22;37186;51.394;5.454;2022-08-19T13:56:26;24.40;71.00
26821;DHT22;37186;51.394;5.454;2022-08-19T13:59:26;24.50;71.10
26821;DHT22;37186;51.394;5.454;2022-08-19T14:02:27;24.50;71.10
26821;DHT22;37186;51.394;5.454;2022-08-19T14:05:28;24.60;71.20
26821;DHT22;37186;51.394;5.454;2022-08-19T14:08:29;24.60;71.10
26821;DHT22;37186;51.394;5.454;2022-08-19T14:11:32;24.70;71.10
26821;DHT22;37186;51.394;5.454;2022-08-19T14:14:37;24.70;71.10
26821;DHT22;37186;51.394;5.454;2022-08-19T14:17:38;24.80;71.10
26821;DHT22;37186;51.394;5.454;2022-08-19T14:20:39;24.80;71.10
26821;DHT22;37186;51.394;5.454;2022-08-19T14:23:40;24.90;71.10
26821;DHT22;37186;51.394;5.454;2022-08-19T14:26:40;24.90;71.20
26821;DHT22;37186;51.394;5.454;2022-08-19T14:29:41;25.00;71.10
26821;DHT22;37186;51.394;5.454;2022-08-19T14:32:42;25.00;71.10
26821;DHT22;37186;51.394;5.454;2022-08-19T14:35:45;25.10;71.10
26821;DHT22;37186;51.394;5.454;2022-08-19T14:38:45;25.10;71.20
26821;DHT22;37186;51.394;5.454;2022-08-19T14:41:46;25.20;71.30
26821;DHT22;37186;51.394;5.454;2022-08-19T14:44:47;25.30;71.40
26821;DHT22;37186;51.394;5.454;2022-08-19T14:47:47;25.30;71.30
26821;DHT22;37186;51.394;5.454;2022-08-19T14:50:48;25.40;71.20
26821;DHT22;37186;51.394;5.454;2022-08-19T14:53:49;25.50;71.10
26821;DHT22;37186;51.394;5.454;2022-08-19T14:56:50;25.50;70.90
26821;DHT22;37186;51.394;5.454;2022-08-19T14:59:51;25.60;70.90
26821;DHT22;37186;51.394;5.454;2022-08-19T15:02:51;25.60;70.60
26821;DHT22;37186;51.394;5.454;2022-08-19T15:05:53;25.60;70.60
26821;DHT22;37186;51.394;5.454;2022-08-19T15:08:54;25.60;70.40
26821;DHT22;37186;51.394;5.454;2022-08-19T15:11:55;25.70;70.20
26821;DHT22;37186;51.394;5.454;2022-08-19T15:14:56;25.60;70.00
26821;DHT22;37186;51.394;5.454;2022-08-19T15:17:57;25.60;69.80
26821;DHT22;37186;51.394;5.454;2022-08-19T15:21:03;25.60;69.90
26821;DHT22;37186;51.394;5.454;2022-08-19T15:24:04;25.60;69.60
26821;DHT22;37186;51.394;5.454;2022-08-19T15:27:05;25.60;69.50
26821;DHT22;37186;51.394;5.454;2022-08-19T15:30:10;25.60;69.60
26821;DHT22;37186;51.394;5.454;2022-08-19T15:33:11;25.50;69.50
26821;DHT22;37186;51.394;5.454;2022-08-19T15:36:15;25.50;69.50
26821;DHT22;37186;51.394;5.454;2022-08-19T15:39:16;25.60;69.80
26821;DHT22;37186;51.394;5.454;2022-08-19T15:42:18;25.60;69.90
26821;DHT22;37186;51.394;5.454;2022-08-19T15:45:21;25.60;69.90
26821;DHT22;37186;51.394;5.454;2022-08-19T15:48:22;25.60;70.00
26821;DHT22;37186;51.394;5.454;2022-08-19T15:51:23;25.60;70.00
26821;DHT22;37186;51.394;5.454;2022-08-19T15:54:24;25.60;70.00
26821;DHT22;37186;51.394;5.454;2022-08-19T15:57:25;25.60;69.90
26821;DHT22;37186;51.394;5.454;2022-08-19T16:00:25;25.70;70.00
26821;DHT22;37186;51.394;5.454;2022-08-19T16:03:44;25.70;70.00
26821;DHT22;37186;51.394;5.454;2022-08-19T16:07:08;25.70;70.00
26821;DHT22;37186;51.394;5.454;2022-08-19T16:10:09;25.70;70.00
26821;DHT22;37186;51.394;5.454;2022-08-19T16:13:10;25.70;70.00
26821;DHT22;37186;51.394;5.454;2022-08-19T16:16:11;25.70;70.00
26821;DHT22;37186;51.394;5.454;2022-08-19T16:19:16;25.70;70.10
26821;DHT22;37186;51.394;5.454;2022-08-19T16:22:17;25.70;70.00
26821;DHT22;37186;51.394;5.454;2022-08-19T16:25:17;25.70;70.00
26821;DHT22;37186;51.394;5.454;2022-08-19T16:28:18;25.70;70.00
26821;DHT22;37186;51.394;5.454;2022-08-19T16:31:18;25.70;69.90
26821;DHT22;37186;51.394;5.454;2022-08-19T16:34:19;25.70;69.80
26821;DHT22;37186;51.394;5.454;2022-08-19T16:37:19;25.70;69.70
26821;DHT22;37186;51.394;5.454;2022-08-19T16:40:21;25.70;69.70
26821;DHT22;37186;51.394;5.454;2022-08-19T16:43:23;25.70;69.60
26821;DHT22;37186;51.394;5.454;2022-08-19T16:46:23;25.70;69.40
26821;DHT22;37186;51.394;5.454;2022-08-19T16:49:28;25.70;69.40
26821;DHT22;37186;51.394;5.454;2022-08-19T16:52:29;25.70;69.30
26821;DHT22;37186;51.394;5.454;2022-08-19T16:55:29;25.70;69.30
26821;DHT22;37186;51.394;5.454;2022-08-19T16:58:30;25.60;69.20
26821;DHT22;37186;51.394;5.454;2022-08-19T17:01:33;25.60;69.20
26821;DHT22;37186;51.394;5.454;2022-08-19T17:04:33;25.60;69.10
26821;DHT22;37186;51.394;5.454;2022-08-19T17:07:34;25.50;69.80
26821;DHT22;37186;51.394;5.454;2022-08-19T17:10:35;25.40;70.00
26821;DHT22;37186;51.394;5.454;2022-08-19T17:13:37;25.40;69.60
26821;DHT22;37186;51.394;5.454;2022-08-19T17:16:38;25.30;69.60
26821;DHT22;37186;51.394;5.454;2022-08-19T17:19:40;25.30;69.60
26821;DHT22;37186;51.394;5.454;2022-08-19T17:22:41;25.20;69.40
26821;DHT22;37186;51.394;5.454;2022-08-19T17:25:42;25.10;69.50
26821;DHT22;37186;51.394;5.454;2022-08-19T17:28:44;25.10;69.40
26821;DHT22;37186;51.394;5.454;2022-08-19T17:31:44;25.00;69.60
26821;DHT22;37186;51.394;5.454;2022-08-19T17:34:45;25.00;69.80
26821;DHT22;37186;51.394;5.454;2022-08-19T17:37:46;24.90;69.80
26821;DHT22;37186;51.394;5.454;2022-08-19T17:40:48;24.90;70.10
26821;DHT22;37186;51.394;5.454;2022-08-19T17:43:48;24.90;70.10
26821;DHT22;37186;51.394;5.454;2022-08-19T17:46:49;24.90;70.10
26821;DHT22;37186;51.394;5.454;2022-08-19T17:49:52;24.80;70.00
26821;DHT22;37186;51.394;5.454;2022-08-19T17:52:53;24.80;70.10
26821;DHT22;37186;51.394;5.454;2022-08-19T17:55:54;24.80;70.90
26821;DHT22;37186;51.394;5.454;2022-08-19T17:58:56;24.70;70.60
26821;DHT22;37186;51.394;5.454;2022-08-19T18:01:57;24.70;71.20
26821;DHT22;37186;51.394;5.454;2022-08-19T18:04:57;24.70;70.60
26821;DHT22;37186;51.394;5.454;2022-08-19T18:07:59;24.70;70.70
26821;DHT22;37186;51.394;5.454;2022-08-19T18:11:00;24.60;70.60
26821;DHT22;37186;51.394;5.454;2022-08-19T18:14:01;24.60;70.60
26821;DHT22;37186;51.394;5.454;2022-08-19T18:17:04;24.60;70.60
26821;DHT22;37186;51.394;5.454;2022-08-19T18:20:08;24.60;70.60
26821;DHT22;37186;51.394;5.454;2022-08-19T18:23:09;24.50;70.70
26821;DHT22;37186;51.394;5.454;2022-08-19T18:26:09;24.50;70.70
26821;DHT22;37186;51.394;5.454;2022-08-19T18:29:10;24.50;70.60
26821;DHT22;37186;51.394;5.454;2022-08-19T18:32:15;24.50;70.60
26821;DHT22;37186;51.394;5.454;2022-08-19T18:35:27;24.40;70.60
26821;DHT22;37186;51.394;5.454;2022-08-19T18:38:31;24.40;70.80
26821;DHT22;37186;51.394;5.454;2022-08-19T18:41:51;24.40;70.70
26821;DHT22;37186;51.394;5.454;2022-08-19T18:45:10;24.40;70.80
26821;DHT22;37186;51.394;5.454;2022-08-19T18:48:29;24.30;70.70
26821;DHT22;37186;51.394;5.454;2022-08-19T18:51:48;24.30;70.70
26821;DHT22;37186;51.394;5.454;2022-08-19T18:54:50;24.30;70.80
26821;DHT22;37186;51.394;5.454;2022-08-19T18:57:51;24.30;70.80
26821;DHT22;37186;51.394;5.454;2022-08-19T19:00:53;24.30;70.80
26821;DHT22;37186;51.394;5.454;2022-08-19T19:03:59;24.20;70.80
26821;DHT22;37186;51.394;5.454;2022-08-19T19:07:00;24.20;70.80
26821;DHT22;37186;51.394;5.454;2022-08-19T19:10:01;24.20;70.80
26821;DHT22;37186;51.394;5.454;2022-08-19T19:13:02;24.20;71.00
26821;DHT22;37186;51.394;5.454;2022-08-19T19:16:02;24.20;71.00
26821;DHT22;37186;51.394;5.454;2022-08-19T19:19:04;24.10;70.90
26821;DHT22;37186;51.394;5.454;2022-08-19T19:22:16;24.10;71.00